Nakhon Phanom, Thailand

11:18 AM ICT on August 02, 2015 (GMT +0700)
Nakhon Phanom | | Change Station
CLOSE
Current Station
Airport
Location: Nakhon Phanom,
Elevation: 584 ft
Nearby Weather Stations

Elev 584 ft 17.38 °N, 104.64 °E | Updated 18 minutes ago

Light Rain
Light Rain
75 °F
Feels Like 75 °F
N
4
Wind Variable Wind from SE

Today
High -- | Low -- °F
--% Chance of Precip.
Yesterday
High -- | Low -- °F
Precip. -- in
5:40 AM 6:33 PM
Waning Gibbous, 96% visible
Pressure 29.83 in
Visibility 3.7 miles
Clouds Mostly Cloudy 1500 ft
Overcast 10000 ft
Dew Point 75 °F
Humidity 100%
Rainfall 0.00 in
Snow Depth Not available.
UV 5 out of 12
Pollen Not available.
Air Quality Not available.
Flu Activity Not available.
METAR VTUW 020400Z 14003KT 6000 -RA BKN015 OVC100 24/24 Q1010 A2984 INFO D RWY15

More Conditions Fewer Conditions

Pressure 29.83 in
Visibility 3.7 miles
Clouds Mostly Cloudy 1500 ft
Overcast 10000 ft
Dew Point 75 °F
Humidity 100%
Rainfall 0.00 in
Snow Depth Not available.
UV 5 out of 12
Pollen Not available.
Air Quality Not available.
Flu Activity Not available.
METAR VTUW 020400Z 14003KT 6000 -RA BKN015 OVC100 24/24 Q1010 A2984 INFO D RWY15

More Conditions Fewer Conditions

10-Day Weather Forecast

×

Almanac

Astronomy

Aug. 02, 2015 Rise Set
Actual Time
Civil Twilight
Nautical Twilight
Astronomical Twilight
Moon
Length of Visible Light
Length of Day
Tomorrow will be .
, % of the Moon is Illuminated

Today's Extremes

Country Highs Country Lows

Community

WunderPhotos

Upload Photos

1,843,182 photos uploaded!

WunderBlogs® & News

Nearby

Air Quality

  Air Quality AQ Index Pollutant
Not available.

Snow Depth

Station Depth Elevation

Earthquake Activity

City Distance Mag. Time & Date
Minimum magnitude displayed is 2.5.

Coastal Water Temperatures

Place Temperature

Stations

Nearby Weather Stations

Station Location Temp. Windchill Dew Point Humidity Wind Precip. Elev Updated Type